createdAt,value
2022-10-18T00:00:07.016Z,18.15
2022-10-18T00:02:35.610Z,36.85
2022-10-18T00:05:03.538Z,26.95
2022-10-18T00:07:31.050Z,17.05
2022-10-18T00:09:58.448Z,29.83
2022-10-18T00:12:25.748Z,24.55
2022-10-18T00:14:53.250Z,42.75
2022-10-18T00:17:20.754Z,20.98
2022-10-18T00:19:50.307Z,52.25
2022-10-18T00:22:17.579Z,25.25
2022-10-18T00:24:44.781Z,21.17
2022-10-18T00:27:12.065Z,28.38
2022-10-18T00:29:39.302Z,31.90
2022-10-18T00:32:06.648Z,15.32
2022-10-18T00:34:34.158Z,30.80
2022-10-18T00:37:01.508Z,38.22
2022-10-18T00:39:28.780Z,19.30
2022-10-18T00:41:56.185Z,28.75
2022-10-18T00:44:29.506Z,18.00
2022-10-18T00:46:58.974Z,27.85
2022-10-18T00:49:29.400Z,21.60
2022-10-18T00:52:08.703Z,19.55
2022-10-18T00:54:37.807Z,13.55
2022-10-18T00:57:05.872Z,23.35
2022-10-18T00:59:33.246Z,22.95
2022-10-18T01:02:00.492Z,17.38
2022-10-18T01:04:27.736Z,35.13
2022-10-18T01:07:01.056Z,32.13
2022-10-18T01:09:46.104Z,45.35
2022-10-18T01:12:20.611Z,35.45
2022-10-18T01:14:54.957Z,28.20
2022-10-18T01:17:28.195Z,34.83
2022-10-18T01:20:18.320Z,26.88
2022-10-18T01:22:56.596Z,20.50
2022-10-18T01:25:26.873Z,40.50
2022-10-18T01:27:57.927Z,32.13
2022-10-18T01:30:33.398Z,26.63
2022-10-18T01:33:05.806Z,28.27
2022-10-18T01:35:36.080Z,18.95
2022-10-18T01:38:04.660Z,17.30
2022-10-18T01:40:33.124Z,22.20
2022-10-18T01:43:01.234Z,33.53
2022-10-18T01:45:28.975Z,19.05
2022-10-18T01:47:56.387Z,31.60
2022-10-18T01:50:30.759Z,20.70
2022-10-18T01:52:58.618Z,37.88
2022-10-18T01:55:28.215Z,19.05
2022-10-18T01:58:04.625Z,20.88
2022-10-18T02:00:39.831Z,15.77
2022-10-18T02:03:11.767Z,11.18
2022-10-18T02:08:22.422Z,29.80
2022-10-18T02:11:02.792Z,28.73
2022-10-18T02:13:32.105Z,8.82
2022-10-18T02:16:01.489Z,37.22
2022-10-18T02:18:31.122Z,22.83
2022-10-18T02:20:58.811Z,8.98
2022-10-18T02:23:27.035Z,19.92
2022-10-18T02:25:54.777Z,13.55
2022-10-18T02:28:22.417Z,20.83
2022-10-18T02:30:59.541Z,10.50
2022-10-18T02:33:32.796Z,19.70
2022-10-18T02:36:01.811Z,17.67
2022-10-18T02:38:29.700Z,14.35
2022-10-18T02:40:56.973Z,18.27
2022-10-18T02:43:25.196Z,17.45
2022-10-18T02:45:52.914Z,20.80
2022-10-18T02:48:20.127Z,11.40
2022-10-18T02:50:47.374Z,29.98
2022-10-18T02:53:14.618Z,12.88
2022-10-18T02:55:41.845Z,11.57
2022-10-18T02:58:09.016Z,16.52
2022-10-18T03:00:36.217Z,36.13
2022-10-18T03:03:03.412Z,11.95
2022-10-18T03:05:30.629Z,12.95
2022-10-18T03:07:58.105Z,21.02
2022-10-18T03:10:25.324Z,18.05
2022-10-18T03:12:52.512Z,22.73
2022-10-18T03:15:19.702Z,11.00
2022-10-18T03:17:46.843Z,30.67
2022-10-18T03:20:14.252Z,19.77
2022-10-18T03:22:41.429Z,12.57
2022-10-18T03:25:08.725Z,16.85
2022-10-18T03:27:35.978Z,17.13
2022-10-18T03:30:03.286Z,14.05
2022-10-18T03:32:30.693Z,11.43
2022-10-18T03:34:58.125Z,9.80
2022-10-18T03:37:25.298Z,11.35
2022-10-18T03:39:52.783Z,19.02
2022-10-18T03:42:19.984Z,17.88
2022-10-18T03:44:47.196Z,11.00
2022-10-18T03:47:14.431Z,16.35
2022-10-18T03:49:41.684Z,24.63
2022-10-18T03:52:08.946Z,17.70
2022-10-18T03:54:36.230Z,15.68
2022-10-18T03:57:03.564Z,20.23
2022-10-18T03:59:30.786Z,14.50
2022-10-18T04:01:58.245Z,10.75
2022-10-18T04:04:25.562Z,20.80
2022-10-18T04:06:52.745Z,9.43
2022-10-18T04:09:19.925Z,15.00
2022-10-18T04:11:47.229Z,29.08
2022-10-18T04:14:14.522Z,17.90
2022-10-18T04:16:41.713Z,9.60
2022-10-18T04:19:08.986Z,9.40
2022-10-18T04:21:36.559Z,16.05
2022-10-18T04:24:03.845Z,15.50
2022-10-18T04:26:31.045Z,25.58
2022-10-18T04:28:58.390Z,14.13
2022-10-18T04:31:25.664Z,18.40
2022-10-18T04:33:53.401Z,19.48
2022-10-18T04:36:20.593Z,14.25
2022-10-18T04:38:47.776Z,9.23
2022-10-18T04:41:14.962Z,12.25
2022-10-18T04:43:42.186Z,33.78
2022-10-18T04:46:09.387Z,37.30
2022-10-18T04:48:36.765Z,15.45
2022-10-18T04:51:04.015Z,15.20
2022-10-18T04:53:31.327Z,38.00
2022-10-18T04:55:58.621Z,18.17
2022-10-18T04:58:25.927Z,15.23
2022-10-18T05:00:53.219Z,7.60
2022-10-18T05:03:20.436Z,21.98
2022-10-18T05:06:01.392Z,19.95
2022-10-18T05:08:30.302Z,20.33
2022-10-18T05:10:57.605Z,15.82
2022-10-18T05:13:25.053Z,16.25
2022-10-18T05:15:52.285Z,9.55
2022-10-18T05:18:19.950Z,7.88
2022-10-18T05:20:47.450Z,30.00
2022-10-18T05:23:14.734Z,9.55
2022-10-18T05:25:42.828Z,16.90
2022-10-18T05:28:15.676Z,27.88
2022-10-18T05:30:54.716Z,13.40
2022-10-18T05:33:21.877Z,16.52
2022-10-18T05:35:49.047Z,8.43
2022-10-18T05:38:16.287Z,7.15
2022-10-18T05:40:43.488Z,11.65
2022-10-18T05:43:10.640Z,8.35
2022-10-18T05:45:37.869Z,6.68
2022-10-18T05:48:07.440Z,9.95
2022-10-18T05:50:36.755Z,16.63
2022-10-18T05:53:12.428Z,14.75
2022-10-18T05:55:40.055Z,7.45
2022-10-18T05:58:07.281Z,15.85
2022-10-18T06:00:34.642Z,13.23
2022-10-18T06:03:01.871Z,13.23
2022-10-18T06:05:29.240Z,10.50
2022-10-18T06:07:57.040Z,10.32
2022-10-18T06:10:24.225Z,37.42
2022-10-18T06:12:51.437Z,17.20
2022-10-18T06:15:18.816Z,8.68
2022-10-18T06:17:46.087Z,10.95
2022-10-18T06:20:13.353Z,8.43
2022-10-18T06:22:40.579Z,14.45
2022-10-18T06:25:08.109Z,9.45
2022-10-18T06:27:35.821Z,21.58
2022-10-18T06:30:03.188Z,12.35
2022-10-18T06:32:30.339Z,12.80
2022-10-18T06:34:57.630Z,9.15
2022-10-18T06:37:24.891Z,13.43
2022-10-18T06:39:52.140Z,16.73
2022-10-18T06:42:22.549Z,8.48
2022-10-18T06:44:50.229Z,11.93
2022-10-18T06:47:17.581Z,52.17
2022-10-18T06:49:44.814Z,11.98
2022-10-18T06:52:11.975Z,19.80
2022-10-18T06:54:39.458Z,25.83
2022-10-18T06:57:06.895Z,34.10
2022-10-18T06:59:35.478Z,21.92
2022-10-18T07:02:02.713Z,39.00
2022-10-18T07:04:33.473Z,13.75
2022-10-18T07:07:00.888Z,36.25
2022-10-18T07:09:28.125Z,22.15
2022-10-18T07:11:55.537Z,13.30
2022-10-18T07:14:26.911Z,11.50
2022-10-18T07:16:56.400Z,10.60
2022-10-18T07:19:23.565Z,14.98
2022-10-18T07:21:50.847Z,20.60
2022-10-18T07:24:18.339Z,12.35
2022-10-18T07:26:45.873Z,18.95
2022-10-18T07:29:13.374Z,15.82
2022-10-18T07:31:40.916Z,8.90
2022-10-18T07:34:10.924Z,10.63
2022-10-18T07:36:38.484Z,8.38
2022-10-18T07:39:06.072Z,9.30
2022-10-18T07:41:34.079Z,10.35
2022-10-18T07:44:01.858Z,10.85
2022-10-18T07:46:29.284Z,26.95
2022-10-18T07:48:58.321Z,16.23
2022-10-18T07:51:25.755Z,13.73
2022-10-18T07:53:52.923Z,13.27
2022-10-18T07:56:21.604Z,15.85
2022-10-18T07:58:56.907Z,8.63
2022-10-18T08:01:25.163Z,11.18
2022-10-18T08:03:52.978Z,7.50
2022-10-18T08:06:21.001Z,21.58
2022-10-18T08:08:48.482Z,14.57
2022-10-18T08:11:17.393Z,10.18
2022-10-18T08:13:44.760Z,11.80
2022-10-18T08:16:13.452Z,8.32
2022-10-18T08:18:40.735Z,8.50
2022-10-18T08:21:09.281Z,7.88
2022-10-18T08:23:36.953Z,9.15
2022-10-18T08:26:05.587Z,8.73
2022-10-18T08:28:33.777Z,7.82
2022-10-18T08:31:08.574Z,8.20
2022-10-18T08:33:36.198Z,8.27
2022-10-18T08:36:07.703Z,7.22
2022-10-18T08:38:35.995Z,7.40
2022-10-18T08:41:21.895Z,7.10
2022-10-18T08:44:01.071Z,8.25
2022-10-18T08:46:31.567Z,7.10
2022-10-18T08:48:59.979Z,7.35
2022-10-18T08:51:40.364Z,7.05
2022-10-18T08:54:12.836Z,6.63
2022-10-18T08:56:41.524Z,7.88
2022-10-18T08:59:12.465Z,7.35
2022-10-18T09:01:49.428Z,6.90
2022-10-18T09:04:34.165Z,9.85
2022-10-18T09:07:20.576Z,7.28
2022-10-18T09:10:00.910Z,9.68
2022-10-18T09:12:39.322Z,8.38
2022-10-18T09:15:36.093Z,6.82
2022-10-18T09:18:25.793Z,9.98
2022-10-18T09:20:56.173Z,7.63
2022-10-18T09:23:31.890Z,10.00
2022-10-18T09:26:11.403Z,7.90
2022-10-18T09:28:45.639Z,7.68
2022-10-18T09:31:18.508Z,9.27
2022-10-18T09:34:01.849Z,8.57
2022-10-18T09:36:35.483Z,9.80
2022-10-18T09:39:10.227Z,10.13
2022-10-18T09:41:45.136Z,11.50
2022-10-18T09:44:24.012Z,10.63
2022-10-18T09:47:02.265Z,10.10
2022-10-18T09:49:31.611Z,12.25
2022-10-18T09:52:00.676Z,12.82
2022-10-18T09:54:34.623Z,12.10
2022-10-18T09:57:14.532Z,17.13
2022-10-18T09:59:49.304Z,13.13
2022-10-18T10:02:23.681Z,13.43
2022-10-18T10:04:51.599Z,14.02
2022-10-18T10:07:20.532Z,14.35
2022-10-18T10:10:05.751Z,16.23
2022-10-18T10:12:34.598Z,14.23
2022-10-18T10:15:19.303Z,12.95
2022-10-18T10:18:05.332Z,14.43
2022-10-18T10:20:49.074Z,15.52
2022-10-18T10:23:28.149Z,10.32
2022-10-18T10:25:57.232Z,7.35
2022-10-18T10:28:26.909Z,7.80
2022-10-18T10:30:54.274Z,11.82
2022-10-18T10:33:38.552Z,11.68
2022-10-18T10:36:07.388Z,8.88
2022-10-18T10:38:34.686Z,7.25
2022-10-18T10:41:01.981Z,12.70
2022-10-18T10:43:44.314Z,9.32
2022-10-18T10:46:13.477Z,12.32
2022-10-18T10:48:56.294Z,9.13
2022-10-18T10:51:37.459Z,12.63
2022-10-18T10:54:16.440Z,9.15
2022-10-18T10:57:11.249Z,10.68
2022-10-18T10:59:52.510Z,9.32
2022-10-18T11:02:26.777Z,8.52
2022-10-18T11:04:55.212Z,15.07
2022-10-18T11:07:31.156Z,8.93
2022-10-18T11:10:14.797Z,11.95
2022-10-18T11:12:44.328Z,11.10
2022-10-18T11:15:14.402Z,10.23
2022-10-18T11:17:49.256Z,13.10
2022-10-18T11:20:19.596Z,10.30
2022-10-18T11:22:54.234Z,10.07
2022-10-18T11:25:22.379Z,10.65
2022-10-18T11:28:00.350Z,11.68
2022-10-18T11:30:27.609Z,9.07
2022-10-18T11:32:54.823Z,10.27
2022-10-18T11:35:34.412Z,13.48
2022-10-18T11:38:14.852Z,9.75
2022-10-18T11:41:00.554Z,14.13
2022-10-18T11:43:50.546Z,8.85
2022-10-18T11:46:30.467Z,9.00
2022-10-18T11:49:06.303Z,8.18
2022-10-18T11:52:07.449Z,7.28
2022-10-18T11:54:50.657Z,7.90
2022-10-18T11:57:20.967Z,9.95
2022-10-18T12:00:00.026Z,6.97
2022-10-18T12:02:46.116Z,7.25
2022-10-18T12:05:28.984Z,8.75
2022-10-18T12:07:59.381Z,6.20
2022-10-18T12:10:39.297Z,8.82
2022-10-18T12:13:18.828Z,6.07
2022-10-18T12:15:46.671Z,5.15
2022-10-18T12:18:16.719Z,6.30
2022-10-18T12:20:46.437Z,9.50
2022-10-18T12:23:17.647Z,7.22
2022-10-18T12:25:50.953Z,6.43
2022-10-18T12:28:18.262Z,5.53
2022-10-18T12:30:54.553Z,5.72
2022-10-18T12:33:28.804Z,8.23
2022-10-18T12:36:16.122Z,5.57
2022-10-18T12:38:45.657Z,6.40
2022-10-18T12:41:25.587Z,9.25
2022-10-18T12:44:06.989Z,7.57
2022-10-18T12:46:45.943Z,5.57
2022-10-18T12:49:14.044Z,5.90
2022-10-18T12:52:01.146Z,11.10
2022-10-18T12:54:30.422Z,11.45
2022-10-18T12:56:58.417Z,5.15
2022-10-18T12:59:28.748Z,8.73
2022-10-18T13:01:56.008Z,4.70
2022-10-18T13:04:29.515Z,11.07
2022-10-18T13:07:05.348Z,8.25
2022-10-18T13:09:37.009Z,7.57
2022-10-18T13:12:07.039Z,4.97
2022-10-18T13:15:05.905Z,5.13
2022-10-18T13:17:43.264Z,7.15
2022-10-18T13:20:25.578Z,5.05
2022-10-18T13:23:00.815Z,6.38
2022-10-18T13:25:46.847Z,5.63
2022-10-18T13:28:17.065Z,8.50
2022-10-18T13:31:10.618Z,9.23
2022-10-18T13:33:39.577Z,8.07
2022-10-18T13:36:22.885Z,6.30
2022-10-18T13:38:50.844Z,5.32
2022-10-18T13:41:19.872Z,9.52
2022-10-18T13:43:53.421Z,7.20
2022-10-18T13:46:21.425Z,6.78
2022-10-18T13:48:52.609Z,9.90
2022-10-18T13:51:36.686Z,5.95
2022-10-18T13:54:22.611Z,8.00
2022-10-18T13:56:49.976Z,7.22
2022-10-18T14:02:11.401Z,6.95
2022-10-18T14:04:43.081Z,6.00
2022-10-18T14:09:46.062Z,9.40
2022-10-18T14:12:27.292Z,6.43
2022-10-18T14:15:05.949Z,6.03
2022-10-18T14:17:42.587Z,6.00
2022-10-18T14:20:24.801Z,9.35
2022-10-18T14:23:22.564Z,6.53
2022-10-18T14:25:49.771Z,4.93
2022-10-18T14:28:27.460Z,7.95
2022-10-18T14:31:08.575Z,9.23
2022-10-18T14:33:57.593Z,8.07
2022-10-18T14:36:40.994Z,5.43
2022-10-18T14:39:16.033Z,13.70
2022-10-18T14:41:50.989Z,5.47
2022-10-18T14:44:20.994Z,13.77
2022-10-18T14:46:52.544Z,12.07
2022-10-18T14:49:21.139Z,6.60
2022-10-18T14:51:50.732Z,6.25
2022-10-18T14:54:25.087Z,11.38
2022-10-18T14:56:55.128Z,13.82
2022-10-18T14:59:26.640Z,7.68
2022-10-18T15:01:58.828Z,7.43
2022-10-18T15:04:32.677Z,9.50
2022-10-18T15:07:01.185Z,11.80
2022-10-18T15:12:01.412Z,5.93
2022-10-18T15:14:29.419Z,12.45
2022-10-18T15:17:05.484Z,8.00
2022-10-18T15:19:34.977Z,15.80
2022-10-18T15:25:15.617Z,10.98
2022-10-18T15:27:48.778Z,9.68
2022-10-18T15:30:18.435Z,11.32
2022-10-18T15:32:54.405Z,13.30
2022-10-18T15:35:26.818Z,11.27
2022-10-18T15:37:55.674Z,28.60
2022-10-18T15:40:22.842Z,55.05
2022-10-18T15:42:50.835Z,92.22
2022-10-18T15:45:24.466Z,64.25
2022-10-18T15:48:09.109Z,47.72
2022-10-18T15:50:39.108Z,39.67
2022-10-18T15:53:23.954Z,31.33
2022-10-18T15:55:55.505Z,18.83
2022-10-18T15:58:26.443Z,13.88
2022-10-18T16:00:55.421Z,13.48
2022-10-18T16:03:23.966Z,18.65
2022-10-18T16:05:57.258Z,12.90
2022-10-18T16:08:25.633Z,14.55
2022-10-18T16:10:53.167Z,10.35
2022-10-18T16:13:20.527Z,17.08
2022-10-18T16:15:47.986Z,13.52
2022-10-18T16:18:16.655Z,9.00
2022-10-18T16:20:43.899Z,12.90
2022-10-18T16:23:18.953Z,12.52
2022-10-18T16:25:46.395Z,8.25
2022-10-18T16:28:14.686Z,12.23
2022-10-18T16:30:43.140Z,13.18
2022-10-18T16:33:10.413Z,20.25
2022-10-18T16:35:37.973Z,14.20
2022-10-18T16:38:05.234Z,16.83
2022-10-18T16:40:33.248Z,24.10
2022-10-18T16:43:01.807Z,18.95
2022-10-18T16:45:29.037Z,20.73
2022-10-18T16:47:56.274Z,28.77
2022-10-18T16:50:23.440Z,26.42
2022-10-18T16:52:50.739Z,23.77
2022-10-18T16:55:24.732Z,21.27
2022-10-18T16:57:52.289Z,27.48
2022-10-18T17:00:20.953Z,15.63
2022-10-18T17:02:48.858Z,13.90
2022-10-18T17:05:16.792Z,15.05
2022-10-18T17:07:44.084Z,15.77
2022-10-18T17:10:15.388Z,21.33
2022-10-18T17:12:42.711Z,22.15
2022-10-18T17:15:10.160Z,14.73
2022-10-18T17:17:37.826Z,14.85
2022-10-18T17:20:07.315Z,15.30
2022-10-18T17:22:34.969Z,24.55
2022-10-18T17:25:10.022Z,18.08
2022-10-18T17:27:42.807Z,22.48
2022-10-18T17:30:20.184Z,19.10
2022-10-18T17:32:51.600Z,25.38
2022-10-18T17:35:19.038Z,17.00
2022-10-18T17:37:52.264Z,17.05
2022-10-18T17:40:20.046Z,24.35
2022-10-18T17:42:47.248Z,22.85
2022-10-18T17:45:14.480Z,21.45
2022-10-18T17:47:41.695Z,29.88
2022-10-18T17:50:10.152Z,36.97
2022-10-18T17:55:09.004Z,36.20
2022-10-18T17:57:36.197Z,25.25
2022-10-18T18:00:05.000Z,26.30
2022-10-18T18:02:41.912Z,21.88
2022-10-18T18:05:09.756Z,23.02
2022-10-18T18:07:36.939Z,32.13
2022-10-18T18:10:04.261Z,39.30
2022-10-18T18:12:31.656Z,39.35
2022-10-18T18:14:59.223Z,42.58
2022-10-18T18:17:34.125Z,34.15
2022-10-18T18:20:02.647Z,41.33
2022-10-18T18:22:30.143Z,33.28
2022-10-18T18:24:57.876Z,36.50
2022-10-18T18:27:27.839Z,37.42
2022-10-18T18:29:56.454Z,39.28
2022-10-18T18:32:23.680Z,29.63
2022-10-18T18:34:50.907Z,30.65
2022-10-18T18:37:18.093Z,28.58
2022-10-18T18:39:45.648Z,28.83
2022-10-18T18:42:12.933Z,26.98
2022-10-18T18:44:40.194Z,25.83
2022-10-18T18:47:13.004Z,24.20
2022-10-18T18:49:40.616Z,26.20
2022-10-18T18:52:07.845Z,20.85
2022-10-18T18:54:35.046Z,17.27
2022-10-18T18:57:05.250Z,25.50
2022-10-18T18:59:32.571Z,18.05
2022-10-18T19:01:59.730Z,21.23
2022-10-18T19:04:28.898Z,17.85
2022-10-18T19:06:56.251Z,19.40
2022-10-18T19:09:23.881Z,24.27
2022-10-18T19:11:55.121Z,25.63
2022-10-18T19:14:24.713Z,28.92
2022-10-18T19:16:59.236Z,20.65
2022-10-18T19:19:27.464Z,15.45
2022-10-18T19:21:55.962Z,14.27
2022-10-18T19:24:24.460Z,14.82
2022-10-18T19:26:53.124Z,13.40
2022-10-18T19:29:24.681Z,18.85
2022-10-18T19:31:52.679Z,19.83
2022-10-18T19:34:20.459Z,15.50
2022-10-18T19:36:48.109Z,16.88
2022-10-18T19:39:18.202Z,16.98
2022-10-18T19:41:46.374Z,17.30
2022-10-18T19:44:13.957Z,19.70
2022-10-18T19:46:41.223Z,17.17
2022-10-18T19:49:08.450Z,14.20
2022-10-18T19:51:35.801Z,23.80
2022-10-18T19:54:03.329Z,17.42
2022-10-18T19:56:30.747Z,18.88
2022-10-18T19:58:58.748Z,15.02
2022-10-18T20:01:26.585Z,21.70
2022-10-18T20:03:54.431Z,19.83
2022-10-18T20:06:21.848Z,17.40
2022-10-18T20:08:49.239Z,17.17
2022-10-18T20:11:18.173Z,14.75
2022-10-18T20:13:45.433Z,24.63
2022-10-18T20:16:13.341Z,14.48
2022-10-18T20:18:43.568Z,17.15
2022-10-18T20:21:12.831Z,16.40
2022-10-18T20:23:40.792Z,18.27
2022-10-18T20:26:09.604Z,13.48
2022-10-18T20:28:38.242Z,16.52
2022-10-18T20:31:19.018Z,29.52
2022-10-18T20:33:47.128Z,30.20
2022-10-18T20:36:15.349Z,28.95
2022-10-18T20:38:43.604Z,22.08
2022-10-18T20:41:12.217Z,18.15
2022-10-18T20:43:39.559Z,17.92
2022-10-18T20:46:07.332Z,16.33
2022-10-18T20:48:34.799Z,20.33
2022-10-18T20:51:05.921Z,19.33
2022-10-18T20:53:33.502Z,16.40
2022-10-18T20:56:09.872Z,25.05
2022-10-18T20:58:37.888Z,24.30
2022-10-18T21:01:06.263Z,27.85
2022-10-18T21:03:33.825Z,28.02
2022-10-18T21:06:02.220Z,21.02
2022-10-18T21:08:29.793Z,18.98
2022-10-18T21:10:57.113Z,15.82
2022-10-18T21:13:24.643Z,23.70
2022-10-18T21:15:57.124Z,20.55
2022-10-18T21:18:28.393Z,21.35
2022-10-18T21:20:55.904Z,21.42
2022-10-18T21:23:23.122Z,25.08
2022-10-18T21:25:50.387Z,30.17
2022-10-18T21:28:18.576Z,30.80
2022-10-18T21:30:46.137Z,30.90
2022-10-18T21:33:15.407Z,25.70
2022-10-18T21:35:42.716Z,36.45
2022-10-18T21:38:10.068Z,43.60
2022-10-18T21:40:39.642Z,44.17
2022-10-18T21:43:06.846Z,39.60
2022-10-18T21:45:34.440Z,33.78
2022-10-18T21:48:01.725Z,36.85
2022-10-18T21:50:28.895Z,26.00
2022-10-18T21:52:56.142Z,28.63
2022-10-18T21:55:23.329Z,25.40
2022-10-18T21:57:50.544Z,34.85
2022-10-18T22:00:18.744Z,26.67
2022-10-18T22:02:45.992Z,35.20
2022-10-18T22:05:13.242Z,41.78
2022-10-18T22:07:40.631Z,44.35
2022-10-18T22:10:08.106Z,34.13
2022-10-18T22:12:35.371Z,32.58
2022-10-18T22:15:02.683Z,25.55
2022-10-18T22:17:30.129Z,27.10
2022-10-18T22:19:59.010Z,25.42
2022-10-18T22:22:26.220Z,28.40
2022-10-18T22:24:53.376Z,26.35
2022-10-18T22:27:20.626Z,18.73
2022-10-18T22:29:47.825Z,22.15
2022-10-18T22:32:15.033Z,28.65
2022-10-18T22:34:42.290Z,25.23
2022-10-18T22:37:09.559Z,24.17
2022-10-18T22:39:36.740Z,32.67
2022-10-18T22:42:06.006Z,42.70
2022-10-18T22:44:36.250Z,43.80
2022-10-18T22:47:03.532Z,42.88
2022-10-18T22:49:30.816Z,34.13
2022-10-18T22:51:58.039Z,39.92
2022-10-18T22:54:25.244Z,33.67
2022-10-18T22:56:52.617Z,34.03
2022-10-18T22:59:19.992Z,29.50
2022-10-18T23:01:47.214Z,25.23
2022-10-18T23:04:14.477Z,31.90
2022-10-18T23:06:41.788Z,38.40
2022-10-18T23:09:13.250Z,33.35
2022-10-18T23:11:40.553Z,30.58
2022-10-18T23:14:08.197Z,31.08
2022-10-18T23:16:35.563Z,26.38
2022-10-18T23:19:02.961Z,31.77
2022-10-18T23:21:30.505Z,32.17
2022-10-18T23:23:57.988Z,40.25
2022-10-18T23:26:29.411Z,48.40
2022-10-18T23:28:56.787Z,45.20
2022-10-18T23:31:31.644Z,38.22
2022-10-18T23:34:00.734Z,32.42
2022-10-18T23:36:28.099Z,32.72
2022-10-18T23:38:55.391Z,33.08
2022-10-18T23:41:23.084Z,35.60
2022-10-18T23:43:50.343Z,31.60
2022-10-18T23:46:18.110Z,35.38
2022-10-18T23:48:45.491Z,38.97
2022-10-18T23:51:17.456Z,51.58
2022-10-18T23:53:44.949Z,41.00
2022-10-18T23:56:13.416Z,46.38
2022-10-18T23:58:41.313Z,43.92
